sensor_id;sensor_type;location;lat;lon;timestamp;temperature;humidity
25732;DHT22;13585;50.864;4.406;2023-04-16T00:00:14;19.90;63.30
25732;DHT22;13585;50.864;4.406;2023-04-16T00:02:40;19.90;63.20
25732;DHT22;13585;50.864;4.406;2023-04-16T00:05:06;19.90;63.20
25732;DHT22;13585;50.864;4.406;2023-04-16T00:07:31;19.90;63.20
25732;DHT22;13585;50.864;4.406;2023-04-16T00:09:57;19.80;63.00
25732;DHT22;13585;50.864;4.406;2023-04-16T00:12:23;19.90;63.10
25732;DHT22;13585;50.864;4.406;2023-04-16T00:14:48;19.80;62.90
25732;DHT22;13585;50.864;4.406;2023-04-16T00:17:14;19.90;62.90
25732;DHT22;13585;50.864;4.406;2023-04-16T00:19:40;19.80;62.80
25732;DHT22;13585;50.864;4.406;2023-04-16T00:22:05;19.90;62.80
25732;DHT22;13585;50.864;4.406;2023-04-16T00:24:31;19.90;62.90
25732;DHT22;13585;50.864;4.406;2023-04-16T00:26:56;19.90;62.70
25732;DHT22;13585;50.864;4.406;2023-04-16T00:29:22;19.90;62.70
25732;DHT22;13585;50.864;4.406;2023-04-16T00:31:48;19.80;62.60
25732;DHT22;13585;50.864;4.406;2023-04-16T00:34:13;19.80;62.50
25732;DHT22;13585;50.864;4.406;2023-04-16T00:36:39;19.90;62.50
25732;DHT22;13585;50.864;4.406;2023-04-16T00:39:05;19.80;62.40
25732;DHT22;13585;50.864;4.406;2023-04-16T00:41:30;19.80;62.40
25732;DHT22;13585;50.864;4.406;2023-04-16T00:43:56;19.80;62.30
25732;DHT22;13585;50.864;4.406;2023-04-16T00:46:22;19.80;63.10
25732;DHT22;13585;50.864;4.406;2023-04-16T00:48:50;19.80;62.30
25732;DHT22;13585;50.864;4.406;2023-04-16T00:51:17;19.80;62.20
25732;DHT22;13585;50.864;4.406;2023-04-16T00:58:55;19.80;62.10
25732;DHT22;13585;50.864;4.406;2023-04-16T01:01:21;19.80;61.90
25732;DHT22;13585;50.864;4.406;2023-04-16T01:03:47;19.80;61.90
25732;DHT22;13585;50.864;4.406;2023-04-16T01:06:15;19.80;61.90
25732;DHT22;13585;50.864;4.406;2023-04-16T01:08:41;19.80;61.80
25732;DHT22;13585;50.864;4.406;2023-04-16T01:11:07;19.80;61.80
25732;DHT22;13585;50.864;4.406;2023-04-16T01:13:34;19.80;61.70
25732;DHT22;13585;50.864;4.406;2023-04-16T01:16:07;19.80;61.70
25732;DHT22;13585;50.864;4.406;2023-04-16T01:18:33;19.80;61.60
25732;DHT22;13585;50.864;4.406;2023-04-16T01:20:59;19.80;61.60
25732;DHT22;13585;50.864;4.406;2023-04-16T01:23:26;19.80;61.50
25732;DHT22;13585;50.864;4.406;2023-04-16T01:25:51;19.80;61.50
25732;DHT22;13585;50.864;4.406;2023-04-16T01:28:17;19.80;61.40
25732;DHT22;13585;50.864;4.406;2023-04-16T01:30:43;19.80;61.30
25732;DHT22;13585;50.864;4.406;2023-04-16T01:33:12;19.80;61.30
25732;DHT22;13585;50.864;4.406;2023-04-16T01:35:39;19.70;61.20
25732;DHT22;13585;50.864;4.406;2023-04-16T01:38:08;19.80;61.20
25732;DHT22;13585;50.864;4.406;2023-04-16T01:40:35;19.80;61.10
25732;DHT22;13585;50.864;4.406;2023-04-16T01:43:01;19.70;61.00
25732;DHT22;13585;50.864;4.406;2023-04-16T01:45:27;19.80;61.10
25732;DHT22;13585;50.864;4.406;2023-04-16T01:47:52;19.70;60.90
25732;DHT22;13585;50.864;4.406;2023-04-16T01:50:19;19.70;60.90
25732;DHT22;13585;50.864;4.406;2023-04-16T01:52:45;19.70;60.80
25732;DHT22;13585;50.864;4.406;2023-04-16T01:55:11;19.70;60.80
25732;DHT22;13585;50.864;4.406;2023-04-16T01:57:37;19.70;60.70
25732;DHT22;13585;50.864;4.406;2023-04-16T02:00:03;19.70;60.70
25732;DHT22;13585;50.864;4.406;2023-04-16T02:02:29;19.70;60.60
25732;DHT22;13585;50.864;4.406;2023-04-16T02:04:55;19.70;60.50
25732;DHT22;13585;50.864;4.406;2023-04-16T02:07:24;19.70;60.50
25732;DHT22;13585;50.864;4.406;2023-04-16T02:09:50;19.70;60.40
25732;DHT22;13585;50.864;4.406;2023-04-16T02:12:16;19.70;60.40
25732;DHT22;13585;50.864;4.406;2023-04-16T02:14:42;19.70;60.40
25732;DHT22;13585;50.864;4.406;2023-04-16T02:17:08;19.70;60.30
25732;DHT22;13585;50.864;4.406;2023-04-16T02:19:34;19.70;60.30
25732;DHT22;13585;50.864;4.406;2023-04-16T02:21:59;19.70;60.20
25732;DHT22;13585;50.864;4.406;2023-04-16T02:24:31;19.70;60.20
25732;DHT22;13585;50.864;4.406;2023-04-16T02:26:57;19.70;60.10
25732;DHT22;13585;50.864;4.406;2023-04-16T02:29:22;19.70;60.10
25732;DHT22;13585;50.864;4.406;2023-04-16T02:31:48;19.70;60.00
25732;DHT22;13585;50.864;4.406;2023-04-16T02:34:14;19.70;60.80
25732;DHT22;13585;50.864;4.406;2023-04-16T02:36:40;19.70;60.00
25732;DHT22;13585;50.864;4.406;2023-04-16T02:39:06;19.70;59.90
25732;DHT22;13585;50.864;4.406;2023-04-16T02:41:32;19.60;59.90
25732;DHT22;13585;50.864;4.406;2023-04-16T02:43:57;19.60;59.90
25732;DHT22;13585;50.864;4.406;2023-04-16T02:46:23;19.70;59.90
25732;DHT22;13585;50.864;4.406;2023-04-16T02:48:48;19.70;59.80
25732;DHT22;13585;50.864;4.406;2023-04-16T02:51:14;19.60;59.70
25732;DHT22;13585;50.864;4.406;2023-04-16T02:53:39;19.60;59.70
25732;DHT22;13585;50.864;4.406;2023-04-16T02:56:06;19.70;59.70
25732;DHT22;13585;50.864;4.406;2023-04-16T02:58:33;19.70;59.60
25732;DHT22;13585;50.864;4.406;2023-04-16T03:00:59;19.70;59.60
25732;DHT22;13585;50.864;4.406;2023-04-16T03:03:25;19.60;59.60
25732;DHT22;13585;50.864;4.406;2023-04-16T03:05:51;19.60;59.60
25732;DHT22;13585;50.864;4.406;2023-04-16T03:08:16;19.70;59.60
25732;DHT22;13585;50.864;4.406;2023-04-16T03:10:42;19.70;59.60
25732;DHT22;13585;50.864;4.406;2023-04-16T03:13:07;19.60;59.50
25732;DHT22;13585;50.864;4.406;2023-04-16T03:15:33;19.70;59.50
25732;DHT22;13585;50.864;4.406;2023-04-16T03:17:59;19.60;59.50
25732;DHT22;13585;50.864;4.406;2023-04-16T03:20:24;19.60;59.40
25732;DHT22;13585;50.864;4.406;2023-04-16T03:22:50;19.60;59.40
25732;DHT22;13585;50.864;4.406;2023-04-16T03:25:19;19.60;59.40
25732;DHT22;13585;50.864;4.406;2023-04-16T03:27:44;19.60;59.40
25732;DHT22;13585;50.864;4.406;2023-04-16T03:30:11;19.60;59.30
25732;DHT22;13585;50.864;4.406;2023-04-16T03:32:37;19.60;59.30
25732;DHT22;13585;50.864;4.406;2023-04-16T03:35:04;19.60;59.30
25732;DHT22;13585;50.864;4.406;2023-04-16T03:37:30;19.60;59.30
25732;DHT22;13585;50.864;4.406;2023-04-16T03:39:56;19.60;59.30
25732;DHT22;13585;50.864;4.406;2023-04-16T03:42:21;19.60;59.30
25732;DHT22;13585;50.864;4.406;2023-04-16T03:44:47;19.60;59.20
25732;DHT22;13585;50.864;4.406;2023-04-16T03:47:13;19.60;59.20
25732;DHT22;13585;50.864;4.406;2023-04-16T03:49:38;19.60;59.20
25732;DHT22;13585;50.864;4.406;2023-04-16T03:52:04;19.60;59.10
25732;DHT22;13585;50.864;4.406;2023-04-16T03:54:29;19.60;59.10
25732;DHT22;13585;50.864;4.406;2023-04-16T03:56:55;19.60;59.10
25732;DHT22;13585;50.864;4.406;2023-04-16T03:59:22;19.60;59.00
25732;DHT22;13585;50.864;4.406;2023-04-16T04:01:47;19.60;59.00
25732;DHT22;13585;50.864;4.406;2023-04-16T04:04:13;19.60;59.00
25732;DHT22;13585;50.864;4.406;2023-04-16T04:06:39;19.60;59.00
25732;DHT22;13585;50.864;4.406;2023-04-16T04:09:05;19.60;59.00
25732;DHT22;13585;50.864;4.406;2023-04-16T04:11:31;19.60;58.90
25732;DHT22;13585;50.864;4.406;2023-04-16T04:13:56;19.60;58.90
25732;DHT22;13585;50.864;4.406;2023-04-16T04:16:22;19.60;58.90
25732;DHT22;13585;50.864;4.406;2023-04-16T04:18:48;19.60;58.90
25732;DHT22;13585;50.864;4.406;2023-04-16T04:21:14;19.60;58.80
25732;DHT22;13585;50.864;4.406;2023-04-16T04:23:40;19.60;58.70
25732;DHT22;13585;50.864;4.406;2023-04-16T04:26:06;19.60;58.70
25732;DHT22;13585;50.864;4.406;2023-04-16T04:28:33;19.60;58.70
25732;DHT22;13585;50.864;4.406;2023-04-16T04:30:59;19.60;58.70
25732;DHT22;13585;50.864;4.406;2023-04-16T04:33:25;19.60;58.60
25732;DHT22;13585;50.864;4.406;2023-04-16T04:35:52;19.60;58.60
25732;DHT22;13585;50.864;4.406;2023-04-16T04:38:18;19.60;58.60
25732;DHT22;13585;50.864;4.406;2023-04-16T04:40:45;19.60;58.60
25732;DHT22;13585;50.864;4.406;2023-04-16T04:43:11;19.60;58.50
25732;DHT22;13585;50.864;4.406;2023-04-16T04:45:36;19.50;58.40
25732;DHT22;13585;50.864;4.406;2023-04-16T04:48:02;19.50;58.50
25732;DHT22;13585;50.864;4.406;2023-04-16T04:50:28;19.50;58.40
25732;DHT22;13585;50.864;4.406;2023-04-16T04:52:53;19.50;58.30
25732;DHT22;13585;50.864;4.406;2023-04-16T04:55:19;19.60;58.40
25732;DHT22;13585;50.864;4.406;2023-04-16T04:57:45;19.50;58.30
25732;DHT22;13585;50.864;4.406;2023-04-16T05:00:11;19.50;58.30
25732;DHT22;13585;50.864;4.406;2023-04-16T05:02:36;19.50;58.20
25732;DHT22;13585;50.864;4.406;2023-04-16T05:05:03;19.50;58.20
25732;DHT22;13585;50.864;4.406;2023-04-16T05:07:29;19.50;58.20
25732;DHT22;13585;50.864;4.406;2023-04-16T05:09:55;19.50;58.20
25732;DHT22;13585;50.864;4.406;2023-04-16T05:12:20;19.50;58.20
25732;DHT22;13585;50.864;4.406;2023-04-16T05:14:46;19.50;58.20
25732;DHT22;13585;50.864;4.406;2023-04-16T05:17:12;19.50;58.20
25732;DHT22;13585;50.864;4.406;2023-04-16T05:19:37;19.50;58.10
25732;DHT22;13585;50.864;4.406;2023-04-16T05:22:03;19.50;58.10
25732;DHT22;13585;50.864;4.406;2023-04-16T05:24:28;19.50;58.00
25732;DHT22;13585;50.864;4.406;2023-04-16T05:26:55;19.50;58.00
25732;DHT22;13585;50.864;4.406;2023-04-16T05:29:21;19.50;58.00
25732;DHT22;13585;50.864;4.406;2023-04-16T05:31:47;19.50;58.00
25732;DHT22;13585;50.864;4.406;2023-04-16T05:34:12;19.50;58.00
25732;DHT22;13585;50.864;4.406;2023-04-16T05:36:38;19.50;57.90
25732;DHT22;13585;50.864;4.406;2023-04-16T05:39:03;19.50;57.90
25732;DHT22;13585;50.864;4.406;2023-04-16T05:41:29;19.50;57.90
25732;DHT22;13585;50.864;4.406;2023-04-16T05:43:55;19.50;57.80
25732;DHT22;13585;50.864;4.406;2023-04-16T05:46:20;19.50;57.80
25732;DHT22;13585;50.864;4.406;2023-04-16T05:48:46;19.50;57.80
25732;DHT22;13585;50.864;4.406;2023-04-16T05:51:11;19.50;57.80
25732;DHT22;13585;50.864;4.406;2023-04-16T05:53:37;19.50;57.80
25732;DHT22;13585;50.864;4.406;2023-04-16T05:56:03;19.50;57.80
25732;DHT22;13585;50.864;4.406;2023-04-16T05:58:28;19.50;57.80
25732;DHT22;13585;50.864;4.406;2023-04-16T06:00:54;19.50;57.80
25732;DHT22;13585;50.864;4.406;2023-04-16T06:03:20;19.50;57.80
25732;DHT22;13585;50.864;4.406;2023-04-16T06:05:45;19.50;57.80
25732;DHT22;13585;50.864;4.406;2023-04-16T06:08:11;19.50;57.80
25732;DHT22;13585;50.864;4.406;2023-04-16T06:10:37;19.50;57.70
25732;DHT22;13585;50.864;4.406;2023-04-16T06:13:02;19.50;57.70
25732;DHT22;13585;50.864;4.406;2023-04-16T06:15:28;19.50;57.70
25732;DHT22;13585;50.864;4.406;2023-04-16T06:17:55;19.50;57.70
25732;DHT22;13585;50.864;4.406;2023-04-16T06:20:20;19.50;57.60
25732;DHT22;13585;50.864;4.406;2023-04-16T06:22:46;19.50;57.60
25732;DHT22;13585;50.864;4.406;2023-04-16T06:25:12;19.50;57.60
25732;DHT22;13585;50.864;4.406;2023-04-16T06:27:37;19.50;57.60
25732;DHT22;13585;50.864;4.406;2023-04-16T06:30:04;19.50;57.60
25732;DHT22;13585;50.864;4.406;2023-04-16T06:32:30;19.50;57.60
25732;DHT22;13585;50.864;4.406;2023-04-16T06:34:56;19.40;57.50
25732;DHT22;13585;50.864;4.406;2023-04-16T06:37:23;19.50;57.60
25732;DHT22;13585;50.864;4.406;2023-04-16T06:39:48;19.50;57.60
25732;DHT22;13585;50.864;4.406;2023-04-16T06:42:14;19.50;57.50
25732;DHT22;13585;50.864;4.406;2023-04-16T06:44:40;19.50;57.50
25732;DHT22;13585;50.864;4.406;2023-04-16T06:47:05;19.50;57.50
25732;DHT22;13585;50.864;4.406;2023-04-16T06:49:31;19.40;57.50
25732;DHT22;13585;50.864;4.406;2023-04-16T06:51:57;19.50;57.50
25732;DHT22;13585;50.864;4.406;2023-04-16T06:54:22;19.50;57.50
25732;DHT22;13585;50.864;4.406;2023-04-16T06:56:48;19.50;58.20
25732;DHT22;13585;50.864;4.406;2023-04-16T06:59:13;19.50;57.50
25732;DHT22;13585;50.864;4.406;2023-04-16T07:01:39;19.40;57.50
25732;DHT22;13585;50.864;4.406;2023-04-16T07:04:05;19.50;57.50
25732;DHT22;13585;50.864;4.406;2023-04-16T07:06:31;19.50;57.50
25732;DHT22;13585;50.864;4.406;2023-04-16T07:08:59;19.40;57.40
25732;DHT22;13585;50.864;4.406;2023-04-16T07:11:25;19.50;57.50
25732;DHT22;13585;50.864;4.406;2023-04-16T07:13:51;19.50;57.50
25732;DHT22;13585;50.864;4.406;2023-04-16T07:16:18;19.40;57.50
25732;DHT22;13585;50.864;4.406;2023-04-16T07:18:43;19.50;57.50
25732;DHT22;13585;50.864;4.406;2023-04-16T07:21:12;19.40;57.40
25732;DHT22;13585;50.864;4.406;2023-04-16T07:23:38;19.40;57.40
25732;DHT22;13585;50.864;4.406;2023-04-16T07:26:03;19.50;57.50
25732;DHT22;13585;50.864;4.406;2023-04-16T07:28:29;19.40;57.40
25732;DHT22;13585;50.864;4.406;2023-04-16T07:30:55;19.40;57.40
25732;DHT22;13585;50.864;4.406;2023-04-16T07:33:20;19.40;57.40
25732;DHT22;13585;50.864;4.406;2023-04-16T07:35:46;19.40;57.40
25732;DHT22;13585;50.864;4.406;2023-04-16T07:38:11;19.40;57.40
25732;DHT22;13585;50.864;4.406;2023-04-16T07:40:37;19.40;57.40
25732;DHT22;13585;50.864;4.406;2023-04-16T07:43:03;19.40;57.40
25732;DHT22;13585;50.864;4.406;2023-04-16T07:45:28;19.40;57.40
25732;DHT22;13585;50.864;4.406;2023-04-16T07:47:54;19.40;57.40
25732;DHT22;13585;50.864;4.406;2023-04-16T07:50:20;19.40;57.40
25732;DHT22;13585;50.864;4.406;2023-04-16T07:52:46;19.40;57.40
25732;DHT22;13585;50.864;4.406;2023-04-16T07:55:12;19.40;58.00
25732;DHT22;13585;50.864;4.406;2023-04-16T07:57:37;19.40;57.40
25732;DHT22;13585;50.864;4.406;2023-04-16T08:00:03;19.40;57.40
25732;DHT22;13585;50.864;4.406;2023-04-16T08:02:29;19.40;57.40
25732;DHT22;13585;50.864;4.406;2023-04-16T08:04:56;19.40;57.40
25732;DHT22;13585;50.864;4.406;2023-04-16T08:07:21;19.40;57.40
25732;DHT22;13585;50.864;4.406;2023-04-16T08:09:49;19.40;57.40
25732;DHT22;13585;50.864;4.406;2023-04-16T08:12:15;19.40;57.40
25732;DHT22;13585;50.864;4.406;2023-04-16T08:14:44;19.40;57.40
25732;DHT22;13585;50.864;4.406;2023-04-16T08:17:11;19.40;57.40
25732;DHT22;13585;50.864;4.406;2023-04-16T08:19:37;19.40;57.40
25732;DHT22;13585;50.864;4.406;2023-04-16T08:22:02;19.40;57.40
25732;DHT22;13585;50.864;4.406;2023-04-16T08:24:28;19.40;57.40
25732;DHT22;13585;50.864;4.406;2023-04-16T08:26:54;19.40;57.30
25732;DHT22;13585;50.864;4.406;2023-04-16T08:29:19;19.40;57.30
25732;DHT22;13585;50.864;4.406;2023-04-16T08:31:45;19.40;57.30
25732;DHT22;13585;50.864;4.406;2023-04-16T08:34:11;19.40;57.40
25732;DHT22;13585;50.864;4.406;2023-04-16T08:36:37;19.40;57.40
25732;DHT22;13585;50.864;4.406;2023-04-16T08:39:03;19.40;57.40
25732;DHT22;13585;50.864;4.406;2023-04-16T08:41:33;19.40;57.40
25732;DHT22;13585;50.864;4.406;2023-04-16T08:44:05;19.40;57.40
25732;DHT22;13585;50.864;4.406;2023-04-16T08:46:35;19.40;57.30
25732;DHT22;13585;50.864;4.406;2023-04-16T08:49:05;19.40;57.40
25732;DHT22;13585;50.864;4.406;2023-04-16T08:51:33;19.40;57.30
25732;DHT22;13585;50.864;4.406;2023-04-16T08:54:03;19.40;57.30
25732;DHT22;13585;50.864;4.406;2023-04-16T08:56:30;19.40;57.30
25732;DHT22;13585;50.864;4.406;2023-04-16T08:58:56;19.40;57.30
25732;DHT22;13585;50.864;4.406;2023-04-16T09:01:24;19.40;57.30
25732;DHT22;13585;50.864;4.406;2023-04-16T09:03:52;19.40;57.30
25732;DHT22;13585;50.864;4.406;2023-04-16T09:06:18;19.40;57.40
25732;DHT22;13585;50.864;4.406;2023-04-16T09:08:44;19.40;57.40
25732;DHT22;13585;50.864;4.406;2023-04-16T09:11:16;19.40;57.40
25732;DHT22;13585;50.864;4.406;2023-04-16T09:13:42;19.40;57.40
25732;DHT22;13585;50.864;4.406;2023-04-16T09:16:08;19.40;57.30
25732;DHT22;13585;50.864;4.406;2023-04-16T09:18:35;19.40;57.30
25732;DHT22;13585;50.864;4.406;2023-04-16T09:21:01;19.40;57.40
25732;DHT22;13585;50.864;4.406;2023-04-16T09:23:28;19.40;57.40
25732;DHT22;13585;50.864;4.406;2023-04-16T09:25:54;19.40;57.40
25732;DHT22;13585;50.864;4.406;2023-04-16T09:28:44;19.40;57.40
25732;DHT22;13585;50.864;4.406;2023-04-16T09:31:13;19.40;57.50
25732;DHT22;13585;50.864;4.406;2023-04-16T09:33:43;19.40;57.40
25732;DHT22;13585;50.864;4.406;2023-04-16T09:36:25;19.40;57.50
25732;DHT22;13585;50.864;4.406;2023-04-16T09:38:51;19.40;57.50
25732;DHT22;13585;50.864;4.406;2023-04-16T09:41:18;19.40;57.60
25732;DHT22;13585;50.864;4.406;2023-04-16T09:44:00;19.30;57.60
25732;DHT22;13585;50.864;4.406;2023-04-16T09:46:40;19.40;57.80
25732;DHT22;13585;50.864;4.406;2023-04-16T09:49:16;19.40;57.70
25732;DHT22;13585;50.864;4.406;2023-04-16T09:51:47;19.40;57.80
25732;DHT22;13585;50.864;4.406;2023-04-16T09:54:16;19.40;57.80
25732;DHT22;13585;50.864;4.406;2023-04-16T09:56:43;19.40;57.80
25732;DHT22;13585;50.864;4.406;2023-04-16T09:59:17;19.40;57.80
25732;DHT22;13585;50.864;4.406;2023-04-16T10:01:43;19.40;57.80
25732;DHT22;13585;50.864;4.406;2023-04-16T10:04:11;19.40;57.80
25732;DHT22;13585;50.864;4.406;2023-04-16T10:06:37;19.40;57.80
25732;DHT22;13585;50.864;4.406;2023-04-16T10:09:06;19.40;58.40
25732;DHT22;13585;50.864;4.406;2023-04-16T10:11:32;19.40;57.80
25732;DHT22;13585;50.864;4.406;2023-04-16T10:13:59;19.40;57.80
25732;DHT22;13585;50.864;4.406;2023-04-16T10:16:25;19.40;57.80
25732;DHT22;13585;50.864;4.406;2023-04-16T10:18:52;19.40;57.80
25732;DHT22;13585;50.864;4.406;2023-04-16T10:21:19;19.40;57.80
25732;DHT22;13585;50.864;4.406;2023-04-16T10:23:45;19.40;57.80
25732;DHT22;13585;50.864;4.406;2023-04-16T10:26:11;19.40;57.80
25732;DHT22;13585;50.864;4.406;2023-04-16T10:28:38;19.40;57.80
25732;DHT22;13585;50.864;4.406;2023-04-16T10:31:06;19.30;57.70
25732;DHT22;13585;50.864;4.406;2023-04-16T10:33:47;19.30;57.70
25732;DHT22;13585;50.864;4.406;2023-04-16T10:36:37;19.30;57.80
25732;DHT22;13585;50.864;4.406;2023-04-16T10:39:10;19.40;57.80
25732;DHT22;13585;50.864;4.406;2023-04-16T10:41:36;19.40;57.80
25732;DHT22;13585;50.864;4.406;2023-04-16T10:44:07;19.40;57.80
25732;DHT22;13585;50.864;4.406;2023-04-16T10:49:22;19.30;57.70
25732;DHT22;13585;50.864;4.406;2023-04-16T10:51:58;19.30;57.70
25732;DHT22;13585;50.864;4.406;2023-04-16T10:54:26;19.30;57.70
25732;DHT22;13585;50.864;4.406;2023-04-16T10:56:59;19.40;57.70
25732;DHT22;13585;50.864;4.406;2023-04-16T10:59:30;19.30;57.70
25732;DHT22;13585;50.864;4.406;2023-04-16T11:02:15;19.30;57.70
25732;DHT22;13585;50.864;4.406;2023-04-16T11:05:00;19.30;57.70
25732;DHT22;13585;50.864;4.406;2023-04-16T11:07:48;19.30;57.70
25732;DHT22;13585;50.864;4.406;2023-04-16T11:10:22;19.30;57.70
25732;DHT22;13585;50.864;4.406;2023-04-16T11:12:51;19.30;57.70
25732;DHT22;13585;50.864;4.406;2023-04-16T11:15:27;19.30;57.60
25732;DHT22;13585;50.864;4.406;2023-04-16T11:17:55;19.30;57.60
25732;DHT22;13585;50.864;4.406;2023-04-16T11:20:23;19.30;57.70
25732;DHT22;13585;50.864;4.406;2023-04-16T11:22:50;19.30;57.60
25732;DHT22;13585;50.864;4.406;2023-04-16T11:35:40;19.30;57.60
25732;DHT22;13585;50.864;4.406;2023-04-16T11:38:10;19.30;57.60
25732;DHT22;13585;50.864;4.406;2023-04-16T11:40:36;19.30;57.60
25732;DHT22;13585;50.864;4.406;2023-04-16T11:43:15;19.30;57.60
25732;DHT22;13585;50.864;4.406;2023-04-16T11:46:19;19.30;57.60
25732;DHT22;13585;50.864;4.406;2023-04-16T11:48:49;19.30;57.60
25732;DHT22;13585;50.864;4.406;2023-04-16T11:51:16;19.30;57.50
25732;DHT22;13585;50.864;4.406;2023-04-16T11:53:54;19.30;57.50
25732;DHT22;13585;50.864;4.406;2023-04-16T11:56:44;19.30;57.60
25732;DHT22;13585;50.864;4.406;2023-04-16T11:59:26;19.30;57.60
25732;DHT22;13585;50.864;4.406;2023-04-16T12:01:57;19.30;57.60
25732;DHT22;13585;50.864;4.406;2023-04-16T12:04:25;19.30;57.60
25732;DHT22;13585;50.864;4.406;2023-04-16T12:07:10;19.30;57.50
25732;DHT22;13585;50.864;4.406;2023-04-16T12:09:37;19.30;57.60
25732;DHT22;13585;50.864;4.406;2023-04-16T12:12:03;19.30;57.50
25732;DHT22;13585;50.864;4.406;2023-04-16T12:14:30;19.30;57.50
25732;DHT22;13585;50.864;4.406;2023-04-16T12:17:20;19.30;57.50
25732;DHT22;13585;50.864;4.406;2023-04-16T12:19:59;19.30;57.60
25732;DHT22;13585;50.864;4.406;2023-04-16T12:22:34;19.30;57.50
25732;DHT22;13585;50.864;4.406;2023-04-16T12:25:11;19.30;57.50
25732;DHT22;13585;50.864;4.406;2023-04-16T12:27:50;19.30;57.50
25732;DHT22;13585;50.864;4.406;2023-04-16T12:30:21;19.30;57.50
25732;DHT22;13585;50.864;4.406;2023-04-16T12:32:48;19.30;57.60
25732;DHT22;13585;50.864;4.406;2023-04-16T12:35:31;19.30;57.60
25732;DHT22;13585;50.864;4.406;2023-04-16T12:37:58;19.30;57.60
25732;DHT22;13585;50.864;4.406;2023-04-16T12:40:24;19.30;57.50
25732;DHT22;13585;50.864;4.406;2023-04-16T12:42:50;19.30;57.60
25732;DHT22;13585;50.864;4.406;2023-04-16T12:45:15;19.30;57.60
25732;DHT22;13585;50.864;4.406;2023-04-16T12:47:41;19.30;57.60
25732;DHT22;13585;50.864;4.406;2023-04-16T12:50:07;19.30;57.60
25732;DHT22;13585;50.864;4.406;2023-04-16T12:52:33;19.30;57.60
25732;DHT22;13585;50.864;4.406;2023-04-16T12:55:00;19.30;57.70
25732;DHT22;13585;50.864;4.406;2023-04-16T12:57:27;19.30;57.70
25732;DHT22;13585;50.864;4.406;2023-04-16T12:59:57;19.30;57.70
25732;DHT22;13585;50.864;4.406;2023-04-16T13:02:23;19.30;57.70
25732;DHT22;13585;50.864;4.406;2023-04-16T13:04:53;19.30;57.80
25732;DHT22;13585;50.864;4.406;2023-04-16T13:07:19;19.30;57.80
25732;DHT22;13585;50.864;4.406;2023-04-16T13:09:45;19.30;57.80
25732;DHT22;13585;50.864;4.406;2023-04-16T13:12:11;19.30;57.90
25732;DHT22;13585;50.864;4.406;2023-04-16T13:14:37;19.30;57.90
25732;DHT22;13585;50.864;4.406;2023-04-16T13:17:03;19.30;57.90
25732;DHT22;13585;50.864;4.406;2023-04-16T13:19:29;19.30;58.00
25732;DHT22;13585;50.864;4.406;2023-04-16T13:21:55;19.30;58.00
25732;DHT22;13585;50.864;4.406;2023-04-16T13:24:20;19.30;58.10
25732;DHT22;13585;50.864;4.406;2023-04-16T13:26:47;19.30;58.10
25732;DHT22;13585;50.864;4.406;2023-04-16T13:29:13;19.30;58.10
25732;DHT22;13585;50.864;4.406;2023-04-16T13:31:39;19.30;58.30
25732;DHT22;13585;50.864;4.406;2023-04-16T13:34:04;19.30;58.40
25732;DHT22;13585;50.864;4.406;2023-04-16T13:36:30;19.30;58.50
25732;DHT22;13585;50.864;4.406;2023-04-16T13:39:02;19.30;58.50
25732;DHT22;13585;50.864;4.406;2023-04-16T13:41:36;19.30;58.60
25732;DHT22;13585;50.864;4.406;2023-04-16T13:44:05;19.30;58.60
25732;DHT22;13585;50.864;4.406;2023-04-16T13:46:31;19.30;58.70
25732;DHT22;13585;50.864;4.406;2023-04-16T13:48:57;19.30;58.70
25732;DHT22;13585;50.864;4.406;2023-04-16T13:51:22;19.30;58.70
25732;DHT22;13585;50.864;4.406;2023-04-16T13:53:54;19.30;58.70
25732;DHT22;13585;50.864;4.406;2023-04-16T13:56:22;19.30;58.90
25732;DHT22;13585;50.864;4.406;2023-04-16T13:58:48;19.30;58.90
25732;DHT22;13585;50.864;4.406;2023-04-16T14:01:13;19.30;59.00
25732;DHT22;13585;50.864;4.406;2023-04-16T14:03:39;19.30;59.00
25732;DHT22;13585;50.864;4.406;2023-04-16T14:06:06;19.30;59.00
25732;DHT22;13585;50.864;4.406;2023-04-16T14:08:32;19.30;59.10
25732;DHT22;13585;50.864;4.406;2023-04-16T14:10:58;19.30;59.10
25732;DHT22;13585;50.864;4.406;2023-04-16T14:13:24;19.30;59.10
25732;DHT22;13585;50.864;4.406;2023-04-16T14:15:52;19.30;59.10
25732;DHT22;13585;50.864;4.406;2023-04-16T14:18:18;19.30;59.20
25732;DHT22;13585;50.864;4.406;2023-04-16T14:20:43;19.30;59.20
25732;DHT22;13585;50.864;4.406;2023-04-16T14:23:09;19.30;59.10
25732;DHT22;13585;50.864;4.406;2023-04-16T14:25:37;19.30;59.10
25732;DHT22;13585;50.864;4.406;2023-04-16T14:28:02;19.30;59.20
25732;DHT22;13585;50.864;4.406;2023-04-16T14:30:28;19.30;59.20
25732;DHT22;13585;50.864;4.406;2023-04-16T14:32:54;19.30;59.20
25732;DHT22;13585;50.864;4.406;2023-04-16T14:35:19;19.30;59.20
25732;DHT22;13585;50.864;4.406;2023-04-16T14:37:45;19.30;59.20
25732;DHT22;13585;50.864;4.406;2023-04-16T14:40:11;19.30;59.20
25732;DHT22;13585;50.864;4.406;2023-04-16T14:42:37;19.30;59.20
25732;DHT22;13585;50.864;4.406;2023-04-16T14:45:04;19.30;59.30
25732;DHT22;13585;50.864;4.406;2023-04-16T14:47:33;19.30;59.20
25732;DHT22;13585;50.864;4.406;2023-04-16T14:49:59;19.30;59.20
25732;DHT22;13585;50.864;4.406;2023-04-16T14:52:25;19.30;59.20
25732;DHT22;13585;50.864;4.406;2023-04-16T14:54:52;19.30;59.30
25732;DHT22;13585;50.864;4.406;2023-04-16T14:57:19;19.30;59.30
25732;DHT22;13585;50.864;4.406;2023-04-16T14:59:45;19.30;59.30
25732;DHT22;13585;50.864;4.406;2023-04-16T15:02:10;19.30;59.30
25732;DHT22;13585;50.864;4.406;2023-04-16T15:04:36;19.30;59.30
25732;DHT22;13585;50.864;4.406;2023-04-16T15:07:02;19.30;59.30
25732;DHT22;13585;50.864;4.406;2023-04-16T15:09:27;19.30;59.30
25732;DHT22;13585;50.864;4.406;2023-04-16T15:11:53;19.30;59.30
25732;DHT22;13585;50.864;4.406;2023-04-16T15:14:19;19.30;59.30
25732;DHT22;13585;50.864;4.406;2023-04-16T15:16:46;19.30;60.00
25732;DHT22;13585;50.864;4.406;2023-04-16T15:19:12;19.30;59.40
25732;DHT22;13585;50.864;4.406;2023-04-16T15:21:37;19.30;59.40
25732;DHT22;13585;50.864;4.406;2023-04-16T15:24:03;19.30;59.50
25732;DHT22;13585;50.864;4.406;2023-04-16T15:26:29;19.30;59.50
25732;DHT22;13585;50.864;4.406;2023-04-16T15:28:55;19.30;59.50
25732;DHT22;13585;50.864;4.406;2023-04-16T15:31:20;19.30;59.50
25732;DHT22;13585;50.864;4.406;2023-04-16T15:33:47;19.30;59.60
25732;DHT22;13585;50.864;4.406;2023-04-16T15:36:12;19.30;59.60
25732;DHT22;13585;50.864;4.406;2023-04-16T15:38:38;19.30;59.60
25732;DHT22;13585;50.864;4.406;2023-04-16T15:41:04;19.30;59.70
25732;DHT22;13585;50.864;4.406;2023-04-16T15:43:29;19.30;59.70
25732;DHT22;13585;50.864;4.406;2023-04-16T15:45:55;19.30;59.70
25732;DHT22;13585;50.864;4.406;2023-04-16T15:48:22;19.30;59.70